Moncks Corner, SC (29461)

3:59 AM EDT on September 20, 2014 (GMT -0400)
KSCMONCK5 | Change Station
CLOSE
Current Station
Personal Weather Station
Location: Moncks Corner, SC
Elevation: 0 ft
Nearby Weather Stations

Elev 0 ft 33.12 °N, 80.03 °W | Updated 28 seconds ago

Partly Cloudy
Partly Cloudy
69.3 °F
Feels Like 69.3 °F
N
3.5
Wind Variable Wind from NNE
Gusts 3.5 mph

Today
High -- | Low -- °F
--% Chance of Precip.
Yesterday
High -- | Low -- °F
Precip. -- in
7:06 AM 7:19 PM
Waning Crescent, 14% visible
Pressure 30.08 in
Visibility 10.0 miles
Clouds Scattered Clouds 4700 ft
Dew Point 63 °F
Humidity 80%
Rainfall 0.00 in
Snow Depth Not available.
UV 0 out of 12
Pollen 8.10 out of 12
Air Quality Not available.
Flu Activity Not available.
METAR KDYB 200755Z AUTO 02005KT 10SM SCT047 21/21 A3008 RMK AO1

More Conditions Fewer Conditions

Pressure 30.08 in
Visibility 10.0 miles
Clouds Scattered Clouds 4700 ft
Dew Point 63 °F
Humidity 80%
Rainfall 0.00 in
Snow Depth Not available.
UV 0 out of 12
Pollen 8.10 out of 12
Air Quality Not available.
Flu Activity Not available.
METAR KDYB 200755Z AUTO 02005KT 10SM SCT047 21/21 A3008 RMK AO1

More Conditions Fewer Conditions

10-Day Weather Forecast

Almanac

Astronomy

Sep. 20, 2014 Rise Set
Actual Time 7:06 AM EDT 7:19 PM EDT
Civil Twilight 6:42 AM EDT 7:44 PM EDT
Nautical Twilight 6:13 AM EDT 8:13 PM EDT
Astronomical Twilight 5:44 AM EDT 8:42 PM EDT
Moon 3:53 AM EDT 5:15 PM EDT
Length of Visible Light 13h 02m
Length of Day
12h 12m
Tomorrow will be 2m 1s shorter.
Waning Crescent, 14% of the Moon is Illuminated
Today
Waning Crescent
Sep 24
New
Oct 1
First Quarter
Oct 8
Full
Oct 15
Last Quarter

Today's Extremes

State Highs State Lows

Community

WunderPhotos

Upload Photos

1,754,793 photos uploaded!

WunderBlogs® & News

Nearby

Air Quality

  Air Quality AQ Index Pollutant
Yesterday Good
PM2.5
Yesterday Good
OZONE
Saturday Good
OZONE

Snow Depth

Station Depth Elevation
No new snow has been reported.

Earthquake Activity

City Distance Mag. Time & Date
New Ellenton, South Carolina 99 miles 2.6 4:38 PM EDT
2014-09-19
Minimum magnitude displayed is 2.5.

Coastal Water Temperatures

Place Temperature
No Stations Reporting

Nearby Weather Stations